Mobile, AL (36695)

3:31 PM CST on December 25, 2014 (GMT -0600)
Champion Hills S/D | Change Station
CLOSE
Current Station
Personal Weather Station
Location: Mobile, AL
Elevation: 154 ft
Nearby Weather Stations

Elev 154 ft 30.61 °N, 88.26 °W | Updated 33 seconds ago

Scattered Clouds
Scattered Clouds
56.6 °F
Feels Like 56.6 °F
N
1.0
Wind Variable Wind from North
Gusts 1.0 mph

Today
High -- | Low -- °F
--% Chance of Precip.
Yesterday
High -- | Low -- °F
Precip. -- in
6:48 AM 4:58 PM
Waxing Crescent, 19% visible
Pressure 30.23 in
Visibility 10.0 miles
Clouds Scattered Clouds 25000 ft
Dew Point 39 °F
Humidity 51%
Rainfall 0.00 in
Snow Depth Not available.
UV 1 out of 12
Pollen 2.60 out of 12
Air Quality Not available.
Flu Activity Not available.
METAR KMOB 252056Z VRB03KT 10SM SCT250 13/02 A3023 RMK AO2 SLP235 T01330017 56006

More Conditions Fewer Conditions

Pressure 30.23 in
Visibility 10.0 miles
Clouds Scattered Clouds 25000 ft
Dew Point 39 °F
Humidity 51%
Rainfall 0.00 in
Snow Depth Not available.
UV 1 out of 12
Pollen 2.60 out of 12
Air Quality Not available.
Flu Activity Not available.
METAR KMOB 252056Z VRB03KT 10SM SCT250 13/02 A3023 RMK AO2 SLP235 T01330017 56006

More Conditions Fewer Conditions

10-Day Weather Forecast

Almanac

Astronomy

Dec. 25, 2014 Rise Set
Actual Time
Civil Twilight
Nautical Twilight
Astronomical Twilight
Moon
Length of Visible Light
Length of Day
Tomorrow will be .
, % of the Moon is Illuminated

Today's Extremes

State Highs State Lows

Community

WunderPhotos

Upload Photos

1,780,402 photos uploaded!

WunderBlogs® & News

Nearby

Air Quality

  Air Quality AQ Index Pollutant
Not available.

Snow Depth

Station Depth Elevation

Earthquake Activity

City Distance Mag. Time & Date
Minimum magnitude displayed is 2.5.

Coastal Water Temperatures

Place Temperature

Nearby Weather Stations